sensor_id;sensor_type;location;lat;lon;timestamp;P1;durP1;ratioP1;P2;durP2;ratioP2
75169;SDS011;63749;49.186;9.222;2023-04-16T00:01:47;19.50;;;10.37;;
75169;SDS011;63749;49.186;9.222;2023-04-16T00:04:12;22.43;;;10.80;;
75169;SDS011;63749;49.186;9.222;2023-04-16T00:06:38;22.67;;;10.73;;
75169;SDS011;63749;49.186;9.222;2023-04-16T00:09:03;18.57;;;9.80;;
75169;SDS011;63749;49.186;9.222;2023-04-16T00:11:28;21.47;;;10.20;;
75169;SDS011;63749;49.186;9.222;2023-04-16T00:13:54;18.40;;;9.63;;
75169;SDS011;63749;49.186;9.222;2023-04-16T00:16:19;21.33;;;10.53;;
75169;SDS011;63749;49.186;9.222;2023-04-16T00:18:45;19.92;;;10.07;;
75169;SDS011;63749;49.186;9.222;2023-04-16T00:21:10;19.47;;;10.20;;
75169;SDS011;63749;49.186;9.222;2023-04-16T00:23:36;19.63;;;9.60;;
75169;SDS011;63749;49.186;9.222;2023-04-16T00:26:02;20.77;;;10.50;;
75169;SDS011;63749;49.186;9.222;2023-04-16T00:28:27;19.97;;;9.53;;
75169;SDS011;63749;49.186;9.222;2023-04-16T00:30:53;20.23;;;9.98;;
75169;SDS011;63749;49.186;9.222;2023-04-16T00:33:19;19.67;;;9.85;;
75169;SDS011;63749;49.186;9.222;2023-04-16T00:35:45;21.20;;;10.27;;
75169;SDS011;63749;49.186;9.222;2023-04-16T00:38:10;22.05;;;10.00;;
75169;SDS011;63749;49.186;9.222;2023-04-16T00:40:36;19.40;;;9.83;;
75169;SDS011;63749;49.186;9.222;2023-04-16T00:43:02;22.30;;;10.13;;
75169;SDS011;63749;49.186;9.222;2023-04-16T00:45:27;19.40;;;10.10;;
75169;SDS011;63749;49.186;9.222;2023-04-16T00:47:53;18.63;;;9.00;;
75169;SDS011;63749;49.186;9.222;2023-04-16T00:50:18;19.53;;;10.03;;
75169;SDS011;63749;49.186;9.222;2023-04-16T00:52:45;18.50;;;9.83;;
75169;SDS011;63749;49.186;9.222;2023-04-16T00:55:11;20.13;;;9.82;;
75169;SDS011;63749;49.186;9.222;2023-04-16T00:57:37;18.80;;;9.57;;
75169;SDS011;63749;49.186;9.222;2023-04-16T01:00:03;21.73;;;9.93;;
75169;SDS011;63749;49.186;9.222;2023-04-16T01:02:29;17.77;;;9.27;;
75169;SDS011;63749;49.186;9.222;2023-04-16T01:04:55;18.83;;;9.70;;
75169;SDS011;63749;49.186;9.222;2023-04-16T01:07:20;17.33;;;9.20;;
75169;SDS011;63749;49.186;9.222;2023-04-16T01:09:45;20.13;;;9.13;;
75169;SDS011;63749;49.186;9.222;2023-04-16T01:12:11;18.20;;;9.37;;
75169;SDS011;63749;49.186;9.222;2023-04-16T01:14:37;19.40;;;9.33;;
75169;SDS011;63749;49.186;9.222;2023-04-16T01:17:02;16.05;;;8.48;;
75169;SDS011;63749;49.186;9.222;2023-04-16T01:19:28;16.70;;;8.53;;
75169;SDS011;63749;49.186;9.222;2023-04-16T01:22:00;15.20;;;7.80;;
75169;SDS011;63749;49.186;9.222;2023-04-16T01:24:26;13.73;;;7.63;;
75169;SDS011;63749;49.186;9.222;2023-04-16T01:26:51;15.73;;;7.87;;
75169;SDS011;63749;49.186;9.222;2023-04-16T01:29:17;13.05;;;7.28;;
75169;SDS011;63749;49.186;9.222;2023-04-16T01:31:42;14.30;;;7.37;;
75169;SDS011;63749;49.186;9.222;2023-04-16T01:34:08;14.17;;;7.63;;
75169;SDS011;63749;49.186;9.222;2023-04-16T01:36:33;13.43;;;7.37;;
75169;SDS011;63749;49.186;9.222;2023-04-16T01:38:58;13.10;;;7.23;;
75169;SDS011;63749;49.186;9.222;2023-04-16T01:41:24;12.60;;;7.10;;
75169;SDS011;63749;49.186;9.222;2023-04-16T01:43:49;13.70;;;7.25;;
75169;SDS011;63749;49.186;9.222;2023-04-16T01:46:22;14.10;;;7.63;;
75169;SDS011;63749;49.186;9.222;2023-04-16T01:48:51;13.30;;;7.22;;
75169;SDS011;63749;49.186;9.222;2023-04-16T01:51:18;15.57;;;7.38;;
75169;SDS011;63749;49.186;9.222;2023-04-16T01:53:44;15.50;;;7.53;;
75169;SDS011;63749;49.186;9.222;2023-04-16T01:56:09;15.07;;;7.40;;
75169;SDS011;63749;49.186;9.222;2023-04-16T01:58:35;13.57;;;7.20;;
75169;SDS011;63749;49.186;9.222;2023-04-16T02:01:00;13.20;;;7.15;;
75169;SDS011;63749;49.186;9.222;2023-04-16T02:03:25;13.63;;;7.67;;
75169;SDS011;63749;49.186;9.222;2023-04-16T02:05:51;17.33;;;7.23;;
75169;SDS011;63749;49.186;9.222;2023-04-16T02:08:16;14.37;;;7.47;;
75169;SDS011;63749;49.186;9.222;2023-04-16T02:10:44;15.32;;;7.88;;
75169;SDS011;63749;49.186;9.222;2023-04-16T02:13:11;13.80;;;7.47;;
75169;SDS011;63749;49.186;9.222;2023-04-16T02:15:36;15.23;;;7.80;;
75169;SDS011;63749;49.186;9.222;2023-04-16T02:18:02;15.83;;;8.30;;
75169;SDS011;63749;49.186;9.222;2023-04-16T02:20:27;15.50;;;7.93;;
75169;SDS011;63749;49.186;9.222;2023-04-16T02:22:53;16.90;;;7.93;;
75169;SDS011;63749;49.186;9.222;2023-04-16T02:25:18;16.97;;;7.83;;
75169;SDS011;63749;49.186;9.222;2023-04-16T02:27:43;16.53;;;7.90;;
75169;SDS011;63749;49.186;9.222;2023-04-16T02:30:09;17.73;;;7.37;;
75169;SDS011;63749;49.186;9.222;2023-04-16T02:32:35;15.35;;;7.20;;
75169;SDS011;63749;49.186;9.222;2023-04-16T02:35:00;17.33;;;7.67;;
75169;SDS011;63749;49.186;9.222;2023-04-16T02:37:27;15.23;;;7.78;;
75169;SDS011;63749;49.186;9.222;2023-04-16T02:39:53;15.07;;;7.33;;
75169;SDS011;63749;49.186;9.222;2023-04-16T02:42:18;15.77;;;7.87;;
75169;SDS011;63749;49.186;9.222;2023-04-16T02:44:43;16.23;;;8.30;;
75169;SDS011;63749;49.186;9.222;2023-04-16T02:47:09;14.85;;;7.55;;
75169;SDS011;63749;49.186;9.222;2023-04-16T02:49:34;16.87;;;7.53;;
75169;SDS011;63749;49.186;9.222;2023-04-16T02:52:00;16.23;;;7.43;;
75169;SDS011;63749;49.186;9.222;2023-04-16T02:54:25;17.10;;;8.10;;
75169;SDS011;63749;49.186;9.222;2023-04-16T02:56:50;18.53;;;7.97;;
75169;SDS011;63749;49.186;9.222;2023-04-16T02:59:16;17.83;;;8.15;;
75169;SDS011;63749;49.186;9.222;2023-04-16T03:01:41;19.30;;;8.70;;
75169;SDS011;63749;49.186;9.222;2023-04-16T03:04:06;18.53;;;8.93;;
75169;SDS011;63749;49.186;9.222;2023-04-16T03:06:32;19.53;;;9.60;;
75169;SDS011;63749;49.186;9.222;2023-04-16T03:08:57;19.50;;;9.17;;
75169;SDS011;63749;49.186;9.222;2023-04-16T03:11:22;17.77;;;9.07;;
75169;SDS011;63749;49.186;9.222;2023-04-16T03:13:48;21.00;;;9.50;;
75169;SDS011;63749;49.186;9.222;2023-04-16T03:16:13;20.23;;;10.10;;
75169;SDS011;63749;49.186;9.222;2023-04-16T03:18:38;22.27;;;10.10;;
75169;SDS011;63749;49.186;9.222;2023-04-16T03:21:04;20.63;;;10.57;;
75169;SDS011;63749;49.186;9.222;2023-04-16T03:23:29;22.87;;;10.07;;
75169;SDS011;63749;49.186;9.222;2023-04-16T03:25:55;23.27;;;10.97;;
75169;SDS011;63749;49.186;9.222;2023-04-16T03:28:20;20.33;;;10.68;;
75169;SDS011;63749;49.186;9.222;2023-04-16T03:30:52;25.00;;;11.17;;
75169;SDS011;63749;49.186;9.222;2023-04-16T03:33:18;22.50;;;11.23;;
75169;SDS011;63749;49.186;9.222;2023-04-16T03:35:44;25.17;;;11.73;;
75169;SDS011;63749;49.186;9.222;2023-04-16T03:38:10;24.38;;;11.25;;
75169;SDS011;63749;49.186;9.222;2023-04-16T03:40:36;25.10;;;12.07;;
75169;SDS011;63749;49.186;9.222;2023-04-16T03:43:01;22.10;;;11.50;;
75169;SDS011;63749;49.186;9.222;2023-04-16T03:45:26;27.13;;;12.13;;
75169;SDS011;63749;49.186;9.222;2023-04-16T03:47:52;28.53;;;12.27;;
75169;SDS011;63749;49.186;9.222;2023-04-16T03:50:20;28.60;;;11.93;;
75169;SDS011;63749;49.186;9.222;2023-04-16T03:52:45;29.75;;;12.95;;
75169;SDS011;63749;49.186;9.222;2023-04-16T03:55:13;25.27;;;12.45;;
75169;SDS011;63749;49.186;9.222;2023-04-16T03:57:38;29.00;;;12.70;;
75169;SDS011;63749;49.186;9.222;2023-04-16T04:00:04;30.27;;;13.73;;
75169;SDS011;63749;49.186;9.222;2023-04-16T04:02:30;29.67;;;12.90;;
75169;SDS011;63749;49.186;9.222;2023-04-16T04:04:55;33.27;;;14.07;;
75169;SDS011;63749;49.186;9.222;2023-04-16T04:07:20;34.57;;;15.03;;
75169;SDS011;63749;49.186;9.222;2023-04-16T04:09:46;31.02;;;14.48;;
75169;SDS011;63749;49.186;9.222;2023-04-16T04:12:11;32.47;;;14.27;;
75169;SDS011;63749;49.186;9.222;2023-04-16T04:14:37;31.27;;;14.03;;
75169;SDS011;63749;49.186;9.222;2023-04-16T04:17:07;32.17;;;15.35;;
75169;SDS011;63749;49.186;9.222;2023-04-16T04:19:33;34.70;;;15.15;;
75169;SDS011;63749;49.186;9.222;2023-04-16T04:21:58;31.73;;;14.53;;
75169;SDS011;63749;49.186;9.222;2023-04-16T04:24:24;34.08;;;14.95;;
75169;SDS011;63749;49.186;9.222;2023-04-16T04:26:50;35.27;;;14.87;;
75169;SDS011;63749;49.186;9.222;2023-04-16T04:29:15;33.43;;;15.30;;
75169;SDS011;63749;49.186;9.222;2023-04-16T04:31:40;33.80;;;14.88;;
75169;SDS011;63749;49.186;9.222;2023-04-16T04:34:06;33.90;;;15.60;;
75169;SDS011;63749;49.186;9.222;2023-04-16T04:36:31;39.13;;;15.60;;
75169;SDS011;63749;49.186;9.222;2023-04-16T04:38:57;38.20;;;16.15;;
75169;SDS011;63749;49.186;9.222;2023-04-16T04:41:22;38.10;;;15.97;;
75169;SDS011;63749;49.186;9.222;2023-04-16T04:43:48;38.27;;;16.03;;
75169;SDS011;63749;49.186;9.222;2023-04-16T04:46:13;37.10;;;16.47;;
75169;SDS011;63749;49.186;9.222;2023-04-16T04:48:39;38.53;;;16.13;;
75169;SDS011;63749;49.186;9.222;2023-04-16T04:51:04;37.22;;;15.77;;
75169;SDS011;63749;49.186;9.222;2023-04-16T04:53:29;38.07;;;15.57;;
75169;SDS011;63749;49.186;9.222;2023-04-16T04:55:55;33.73;;;14.93;;
75169;SDS011;63749;49.186;9.222;2023-04-16T04:58:20;32.87;;;14.93;;
75169;SDS011;63749;49.186;9.222;2023-04-16T05:00:45;33.80;;;15.20;;
75169;SDS011;63749;49.186;9.222;2023-04-16T05:03:11;33.20;;;14.57;;
75169;SDS011;63749;49.186;9.222;2023-04-16T05:05:39;33.70;;;14.53;;
75169;SDS011;63749;49.186;9.222;2023-04-16T05:08:05;31.55;;;14.18;;
75169;SDS011;63749;49.186;9.222;2023-04-16T05:10:31;33.03;;;15.27;;
75169;SDS011;63749;49.186;9.222;2023-04-16T05:12:56;34.00;;;14.97;;
75169;SDS011;63749;49.186;9.222;2023-04-16T05:15:21;34.60;;;15.33;;
75169;SDS011;63749;49.186;9.222;2023-04-16T05:17:47;33.27;;;15.63;;
75169;SDS011;63749;49.186;9.222;2023-04-16T05:20:12;32.35;;;15.18;;
75169;SDS011;63749;49.186;9.222;2023-04-16T05:22:37;31.33;;;14.53;;
75169;SDS011;63749;49.186;9.222;2023-04-16T05:25:03;31.47;;;14.50;;
75169;SDS011;63749;49.186;9.222;2023-04-16T05:27:28;35.87;;;15.40;;
75169;SDS011;63749;49.186;9.222;2023-04-16T05:29:54;38.08;;;16.73;;
75169;SDS011;63749;49.186;9.222;2023-04-16T05:32:19;35.47;;;15.63;;
75169;SDS011;63749;49.186;9.222;2023-04-16T05:34:45;34.63;;;15.63;;
75169;SDS011;63749;49.186;9.222;2023-04-16T05:37:10;35.83;;;16.27;;
75169;SDS011;63749;49.186;9.222;2023-04-16T05:39:35;30.73;;;15.27;;
75169;SDS011;63749;49.186;9.222;2023-04-16T05:42:01;33.40;;;15.50;;
75169;SDS011;63749;49.186;9.222;2023-04-16T05:44:26;31.47;;;14.87;;
75169;SDS011;63749;49.186;9.222;2023-04-16T05:46:51;33.17;;;13.33;;
75169;SDS011;63749;49.186;9.222;2023-04-16T05:49:17;31.27;;;13.73;;
75169;SDS011;63749;49.186;9.222;2023-04-16T05:51:46;30.55;;;13.95;;
75169;SDS011;63749;49.186;9.222;2023-04-16T05:54:12;30.38;;;14.77;;
75169;SDS011;63749;49.186;9.222;2023-04-16T05:56:37;30.23;;;14.07;;
75169;SDS011;63749;49.186;9.222;2023-04-16T05:59:02;29.07;;;14.13;;
75169;SDS011;63749;49.186;9.222;2023-04-16T06:01:28;31.90;;;14.83;;
75169;SDS011;63749;49.186;9.222;2023-04-16T06:03:53;29.93;;;14.23;;
75169;SDS011;63749;49.186;9.222;2023-04-16T06:06:18;31.73;;;15.40;;
75169;SDS011;63749;49.186;9.222;2023-04-16T06:08:43;33.83;;;14.48;;
75169;SDS011;63749;49.186;9.222;2023-04-16T06:11:09;25.47;;;13.63;;
75169;SDS011;63749;49.186;9.222;2023-04-16T06:13:35;29.33;;;14.43;;
75169;SDS011;63749;49.186;9.222;2023-04-16T06:16:00;24.55;;;12.55;;
75169;SDS011;63749;49.186;9.222;2023-04-16T06:18:26;26.23;;;13.23;;
75169;SDS011;63749;49.186;9.222;2023-04-16T06:20:51;28.37;;;13.47;;
75169;SDS011;63749;49.186;9.222;2023-04-16T06:23:17;28.03;;;14.17;;
75169;SDS011;63749;49.186;9.222;2023-04-16T06:25:42;30.52;;;14.23;;
75169;SDS011;63749;49.186;9.222;2023-04-16T06:28:07;29.23;;;14.00;;
75169;SDS011;63749;49.186;9.222;2023-04-16T06:30:32;29.23;;;14.53;;
75169;SDS011;63749;49.186;9.222;2023-04-16T06:32:58;28.40;;;13.93;;
75169;SDS011;63749;49.186;9.222;2023-04-16T06:35:23;27.37;;;14.27;;
75169;SDS011;63749;49.186;9.222;2023-04-16T06:37:49;31.10;;;14.98;;
75169;SDS011;63749;49.186;9.222;2023-04-16T06:40:14;28.47;;;13.77;;
75169;SDS011;63749;49.186;9.222;2023-04-16T06:42:41;25.30;;;13.23;;
75169;SDS011;63749;49.186;9.222;2023-04-16T06:45:06;26.60;;;13.65;;
75169;SDS011;63749;49.186;9.222;2023-04-16T06:47:33;29.15;;;13.32;;
75169;SDS011;63749;49.186;9.222;2023-04-16T06:49:58;24.67;;;12.87;;
75169;SDS011;63749;49.186;9.222;2023-04-16T06:52:23;23.17;;;12.30;;
75169;SDS011;63749;49.186;9.222;2023-04-16T06:54:49;21.50;;;11.52;;
75169;SDS011;63749;49.186;9.222;2023-04-16T06:57:14;23.87;;;11.80;;
75169;SDS011;63749;49.186;9.222;2023-04-16T06:59:40;23.97;;;12.23;;
75169;SDS011;63749;49.186;9.222;2023-04-16T07:02:06;24.03;;;12.20;;
75169;SDS011;63749;49.186;9.222;2023-04-16T07:04:34;24.55;;;12.43;;
75169;SDS011;63749;49.186;9.222;2023-04-16T07:07:00;23.23;;;12.37;;
75169;SDS011;63749;49.186;9.222;2023-04-16T07:09:25;23.52;;;12.15;;
75169;SDS011;63749;49.186;9.222;2023-04-16T07:11:51;23.93;;;12.60;;
75169;SDS011;63749;49.186;9.222;2023-04-16T07:14:17;22.67;;;11.82;;
75169;SDS011;63749;49.186;9.222;2023-04-16T07:16:42;23.63;;;11.90;;
75169;SDS011;63749;49.186;9.222;2023-04-16T07:19:08;20.90;;;11.50;;
75169;SDS011;63749;49.186;9.222;2023-04-16T07:21:33;20.37;;;11.20;;
75169;SDS011;63749;49.186;9.222;2023-04-16T07:23:58;22.42;;;11.05;;
75169;SDS011;63749;49.186;9.222;2023-04-16T07:26:24;20.73;;;11.03;;
75169;SDS011;63749;49.186;9.222;2023-04-16T07:28:50;24.30;;;12.45;;
75169;SDS011;63749;49.186;9.222;2023-04-16T07:31:15;22.50;;;11.50;;
75169;SDS011;63749;49.186;9.222;2023-04-16T07:33:41;21.97;;;11.73;;
75169;SDS011;63749;49.186;9.222;2023-04-16T07:36:06;24.73;;;12.00;;
75169;SDS011;63749;49.186;9.222;2023-04-16T07:38:32;22.02;;;12.05;;
75169;SDS011;63749;49.186;9.222;2023-04-16T07:40:58;21.88;;;11.63;;
75169;SDS011;63749;49.186;9.222;2023-04-16T07:43:24;19.87;;;10.97;;
75169;SDS011;63749;49.186;9.222;2023-04-16T07:45:50;23.67;;;12.32;;
75169;SDS011;63749;49.186;9.222;2023-04-16T07:48:16;21.33;;;10.23;;
75169;SDS011;63749;49.186;9.222;2023-04-16T07:50:41;19.57;;;11.17;;
75169;SDS011;63749;49.186;9.222;2023-04-16T07:53:10;20.70;;;11.30;;
75169;SDS011;63749;49.186;9.222;2023-04-16T07:55:35;21.23;;;11.15;;
75169;SDS011;63749;49.186;9.222;2023-04-16T07:58:01;19.67;;;11.07;;
75169;SDS011;63749;49.186;9.222;2023-04-16T08:00:26;23.43;;;12.17;;
75169;SDS011;63749;49.186;9.222;2023-04-16T08:02:52;21.50;;;11.13;;
75169;SDS011;63749;49.186;9.222;2023-04-16T08:05:18;21.63;;;11.67;;
75169;SDS011;63749;49.186;9.222;2023-04-16T08:07:43;23.03;;;11.63;;
75169;SDS011;63749;49.186;9.222;2023-04-16T08:10:09;20.03;;;11.03;;
75169;SDS011;63749;49.186;9.222;2023-04-16T08:12:34;18.93;;;10.80;;
75169;SDS011;63749;49.186;9.222;2023-04-16T08:15:00;18.20;;;9.90;;
75169;SDS011;63749;49.186;9.222;2023-04-16T08:17:25;22.70;;;11.40;;
75169;SDS011;63749;49.186;9.222;2023-04-16T08:19:52;20.05;;;10.90;;
75169;SDS011;63749;49.186;9.222;2023-04-16T08:22:18;19.67;;;10.30;;
75169;SDS011;63749;49.186;9.222;2023-04-16T08:24:43;18.27;;;10.00;;
75169;SDS011;63749;49.186;9.222;2023-04-16T08:27:08;21.93;;;11.27;;
75169;SDS011;63749;49.186;9.222;2023-04-16T08:29:35;20.73;;;11.40;;
75169;SDS011;63749;49.186;9.222;2023-04-16T08:32:01;19.33;;;10.50;;
75169;SDS011;63749;49.186;9.222;2023-04-16T08:34:26;22.20;;;10.95;;
75169;SDS011;63749;49.186;9.222;2023-04-16T08:36:51;20.60;;;11.37;;
75169;SDS011;63749;49.186;9.222;2023-04-16T08:39:17;18.83;;;10.10;;
75169;SDS011;63749;49.186;9.222;2023-04-16T08:41:43;15.27;;;7.90;;
75169;SDS011;63749;49.186;9.222;2023-04-16T08:44:11;19.23;;;9.98;;
75169;SDS011;63749;49.186;9.222;2023-04-16T08:46:45;18.70;;;9.90;;
75169;SDS011;63749;49.186;9.222;2023-04-16T08:49:14;17.73;;;9.70;;
75169;SDS011;63749;49.186;9.222;2023-04-16T08:51:42;20.10;;;10.50;;
75169;SDS011;63749;49.186;9.222;2023-04-16T08:54:13;20.30;;;10.70;;
75169;SDS011;63749;49.186;9.222;2023-04-16T08:56:56;19.13;;;8.93;;
75169;SDS011;63749;49.186;9.222;2023-04-16T08:59:24;18.08;;;9.73;;
75169;SDS011;63749;49.186;9.222;2023-04-16T09:01:50;18.23;;;10.07;;
75169;SDS011;63749;49.186;9.222;2023-04-16T09:04:17;20.30;;;10.30;;
75169;SDS011;63749;49.186;9.222;2023-04-16T09:06:43;18.85;;;10.10;;
75169;SDS011;63749;49.186;9.222;2023-04-16T09:09:10;19.85;;;9.60;;
75169;SDS011;63749;49.186;9.222;2023-04-16T09:11:36;17.38;;;9.32;;
75169;SDS011;63749;49.186;9.222;2023-04-16T09:14:03;19.37;;;8.23;;
75169;SDS011;63749;49.186;9.222;2023-04-16T09:16:33;18.35;;;9.70;;
75169;SDS011;63749;49.186;9.222;2023-04-16T09:18:58;17.17;;;8.93;;
75169;SDS011;63749;49.186;9.222;2023-04-16T09:21:24;17.63;;;9.20;;
75169;SDS011;63749;49.186;9.222;2023-04-16T09:23:51;17.67;;;9.27;;
75169;SDS011;63749;49.186;9.222;2023-04-16T09:26:17;19.10;;;10.00;;
75169;SDS011;63749;49.186;9.222;2023-04-16T09:28:44;18.58;;;9.02;;
75169;SDS011;63749;49.186;9.222;2023-04-16T09:31:12;21.20;;;9.85;;
75169;SDS011;63749;49.186;9.222;2023-04-16T09:33:38;20.63;;;10.35;;
75169;SDS011;63749;49.186;9.222;2023-04-16T09:36:05;20.07;;;9.67;;
75169;SDS011;63749;49.186;9.222;2023-04-16T09:41:13;18.13;;;8.73;;
75169;SDS011;63749;49.186;9.222;2023-04-16T09:44:03;21.40;;;10.40;;
75169;SDS011;63749;49.186;9.222;2023-04-16T09:48:53;18.87;;;9.73;;
75169;SDS011;63749;49.186;9.222;2023-04-16T09:51:19;20.83;;;10.40;;
75169;SDS011;63749;49.186;9.222;2023-04-16T09:53:44;19.73;;;10.10;;
75169;SDS011;63749;49.186;9.222;2023-04-16T09:56:10;18.73;;;9.82;;
75169;SDS011;63749;49.186;9.222;2023-04-16T09:58:36;19.40;;;9.10;;
75169;SDS011;63749;49.186;9.222;2023-04-16T10:01:03;18.93;;;9.73;;
75169;SDS011;63749;49.186;9.222;2023-04-16T10:03:32;19.55;;;9.30;;
75169;SDS011;63749;49.186;9.222;2023-04-16T10:06:09;17.15;;;9.35;;
75169;SDS011;63749;49.186;9.222;2023-04-16T10:08:43;20.00;;;9.88;;
75169;SDS011;63749;49.186;9.222;2023-04-16T10:11:20;19.70;;;9.60;;
75169;SDS011;63749;49.186;9.222;2023-04-16T10:13:46;17.33;;;8.60;;
75169;SDS011;63749;49.186;9.222;2023-04-16T10:16:11;20.03;;;9.70;;
75169;SDS011;63749;49.186;9.222;2023-04-16T10:18:38;16.03;;;8.63;;
75169;SDS011;63749;49.186;9.222;2023-04-16T10:21:04;16.15;;;8.43;;
75169;SDS011;63749;49.186;9.222;2023-04-16T10:23:33;18.23;;;8.80;;
75169;SDS011;63749;49.186;9.222;2023-04-16T10:25:59;18.83;;;9.23;;
75169;SDS011;63749;49.186;9.222;2023-04-16T10:28:25;17.00;;;8.68;;
75169;SDS011;63749;49.186;9.222;2023-04-16T10:30:53;17.45;;;8.52;;
75169;SDS011;63749;49.186;9.222;2023-04-16T10:33:21;17.02;;;8.65;;
75169;SDS011;63749;49.186;9.222;2023-04-16T10:35:51;19.07;;;8.53;;
75169;SDS011;63749;49.186;9.222;2023-04-16T10:38:30;17.77;;;8.52;;
75169;SDS011;63749;49.186;9.222;2023-04-16T10:41:01;16.65;;;8.32;;
75169;SDS011;63749;49.186;9.222;2023-04-16T10:43:27;17.73;;;8.30;;
75169;SDS011;63749;49.186;9.222;2023-04-16T10:45:54;17.63;;;8.10;;
75169;SDS011;63749;49.186;9.222;2023-04-16T10:48:20;16.90;;;8.40;;
75169;SDS011;63749;49.186;9.222;2023-04-16T10:50:56;15.82;;;7.65;;
75169;SDS011;63749;49.186;9.222;2023-04-16T10:53:23;15.33;;;7.53;;
75169;SDS011;63749;49.186;9.222;2023-04-16T10:56:11;13.45;;;6.80;;
75169;SDS011;63749;49.186;9.222;2023-04-16T10:58:36;14.10;;;6.90;;
75169;SDS011;63749;49.186;9.222;2023-04-16T11:01:25;13.43;;;7.40;;
75169;SDS011;63749;49.186;9.222;2023-04-16T11:03:54;14.30;;;7.05;;
75169;SDS011;63749;49.186;9.222;2023-04-16T11:06:23;12.97;;;6.67;;
75169;SDS011;63749;49.186;9.222;2023-04-16T11:08:50;14.57;;;6.80;;
75169;SDS011;63749;49.186;9.222;2023-04-16T11:11:19;15.43;;;7.55;;
75169;SDS011;63749;49.186;9.222;2023-04-16T11:13:45;13.60;;;6.97;;
75169;SDS011;63749;49.186;9.222;2023-04-16T11:16:12;11.13;;;5.53;;
75169;SDS011;63749;49.186;9.222;2023-04-16T11:18:38;10.25;;;6.00;;
75169;SDS011;63749;49.186;9.222;2023-04-16T11:21:10;11.63;;;6.15;;
75169;SDS011;63749;49.186;9.222;2023-04-16T11:23:47;11.87;;;5.70;;
75169;SDS011;63749;49.186;9.222;2023-04-16T11:26:23;10.90;;;5.80;;
75169;SDS011;63749;49.186;9.222;2023-04-16T11:28:50;10.27;;;5.40;;
75169;SDS011;63749;49.186;9.222;2023-04-16T11:31:15;8.85;;;4.80;;
75169;SDS011;63749;49.186;9.222;2023-04-16T11:33:41;9.27;;;5.00;;
75169;SDS011;63749;49.186;9.222;2023-04-16T11:36:07;8.02;;;5.07;;
75169;SDS011;63749;49.186;9.222;2023-04-16T11:38:36;8.30;;;4.80;;
75169;SDS011;63749;49.186;9.222;2023-04-16T11:41:02;9.25;;;4.80;;
75169;SDS011;63749;49.186;9.222;2023-04-16T11:43:28;10.00;;;5.17;;
75169;SDS011;63749;49.186;9.222;2023-04-16T11:45:57;8.70;;;5.40;;
75169;SDS011;63749;49.186;9.222;2023-04-16T11:48:23;7.97;;;4.40;;
75169;SDS011;63749;49.186;9.222;2023-04-16T11:50:55;7.00;;;4.10;;
75169;SDS011;63749;49.186;9.222;2023-04-16T11:53:22;6.67;;;4.10;;
75169;SDS011;63749;49.186;9.222;2023-04-16T11:55:47;7.63;;;4.13;;
75169;SDS011;63749;49.186;9.222;2023-04-16T11:58:13;9.30;;;3.83;;
75169;SDS011;63749;49.186;9.222;2023-04-16T12:00:41;6.20;;;3.55;;
75169;SDS011;63749;49.186;9.222;2023-04-16T12:03:07;6.63;;;3.80;;
75169;SDS011;63749;49.186;9.222;2023-04-16T12:05:36;7.17;;;3.93;;
75169;SDS011;63749;49.186;9.222;2023-04-16T12:08:07;8.00;;;4.30;;
75169;SDS011;63749;49.186;9.222;2023-04-16T12:10:51;6.55;;;4.07;;
75169;SDS011;63749;49.186;9.222;2023-04-16T12:13:17;8.45;;;4.18;;
75169;SDS011;63749;49.186;9.222;2023-04-16T12:15:44;7.97;;;4.70;;
75169;SDS011;63749;49.186;9.222;2023-04-16T12:18:12;8.15;;;4.68;;
75169;SDS011;63749;49.186;9.222;2023-04-16T12:20:40;7.03;;;4.25;;
75169;SDS011;63749;49.186;9.222;2023-04-16T12:23:06;9.68;;;4.63;;
75169;SDS011;63749;49.186;9.222;2023-04-16T12:25:32;6.77;;;4.63;;
75169;SDS011;63749;49.186;9.222;2023-04-16T12:27:58;7.82;;;4.97;;
75169;SDS011;63749;49.186;9.222;2023-04-16T12:30:24;8.13;;;4.87;;
75169;SDS011;63749;49.186;9.222;2023-04-16T12:35:42;7.68;;;4.85;;
75169;SDS011;63749;49.186;9.222;2023-04-16T12:38:08;7.70;;;5.10;;
75169;SDS011;63749;49.186;9.222;2023-04-16T12:40:34;8.63;;;5.13;;
75169;SDS011;63749;49.186;9.222;2023-04-16T12:43:00;8.82;;;4.80;;
75169;SDS011;63749;49.186;9.222;2023-04-16T12:45:26;9.30;;;5.63;;
75169;SDS011;63749;49.186;9.222;2023-04-16T12:47:52;8.57;;;5.43;;
75169;SDS011;63749;49.186;9.222;2023-04-16T12:50:17;7.70;;;5.23;;
75169;SDS011;63749;49.186;9.222;2023-04-16T12:52:43;8.90;;;5.70;;
75169;SDS011;63749;49.186;9.222;2023-04-16T12:55:08;8.32;;;5.57;;
75169;SDS011;63749;49.186;9.222;2023-04-16T12:57:34;8.93;;;5.40;;
75169;SDS011;63749;49.186;9.222;2023-04-16T13:00:00;8.85;;;5.13;;
75169;SDS011;63749;49.186;9.222;2023-04-16T13:02:25;8.57;;;5.40;;
75169;SDS011;63749;49.186;9.222;2023-04-16T13:04:51;9.73;;;5.40;;
75169;SDS011;63749;49.186;9.222;2023-04-16T13:07:17;9.17;;;5.07;;
75169;SDS011;63749;49.186;9.222;2023-04-16T13:09:43;10.63;;;6.10;;
75169;SDS011;63749;49.186;9.222;2023-04-16T13:12:09;10.48;;;6.55;;
75169;SDS011;63749;49.186;9.222;2023-04-16T13:14:34;9.83;;;6.43;;
75169;SDS011;63749;49.186;9.222;2023-04-16T13:17:01;12.47;;;7.33;;
75169;SDS011;63749;49.186;9.222;2023-04-16T13:19:27;10.98;;;6.93;;
75169;SDS011;63749;49.186;9.222;2023-04-16T13:21:53;11.20;;;6.43;;
75169;SDS011;63749;49.186;9.222;2023-04-16T13:24:18;12.13;;;7.07;;
75169;SDS011;63749;49.186;9.222;2023-04-16T13:26:43;10.75;;;6.20;;
75169;SDS011;63749;49.186;9.222;2023-04-16T13:29:09;10.37;;;6.80;;
75169;SDS011;63749;49.186;9.222;2023-04-16T13:31:35;11.63;;;7.00;;
75169;SDS011;63749;49.186;9.222;2023-04-16T13:34:00;12.53;;;7.40;;
75169;SDS011;63749;49.186;9.222;2023-04-16T13:36:27;11.73;;;7.78;;
75169;SDS011;63749;49.186;9.222;2023-04-16T13:38:53;12.90;;;7.73;;
75169;SDS011;63749;49.186;9.222;2023-04-16T13:41:19;12.73;;;7.78;;
75169;SDS011;63749;49.186;9.222;2023-04-16T13:43:44;12.73;;;7.33;;
75169;SDS011;63749;49.186;9.222;2023-04-16T13:46:10;11.80;;;7.07;;
75169;SDS011;63749;49.186;9.222;2023-04-16T13:48:36;14.93;;;7.80;;
75169;SDS011;63749;49.186;9.222;2023-04-16T13:51:01;12.10;;;7.73;;
75169;SDS011;63749;49.186;9.222;2023-04-16T13:53:27;12.30;;;7.50;;
75169;SDS011;63749;49.186;9.222;2023-04-16T13:55:52;17.43;;;8.50;;
75169;SDS011;63749;49.186;9.222;2023-04-16T13:58:18;14.47;;;8.70;;
75169;SDS011;63749;49.186;9.222;2023-04-16T14:00:44;15.77;;;9.07;;
75169;SDS011;63749;49.186;9.222;2023-04-16T14:03:09;15.90;;;8.80;;
75169;SDS011;63749;49.186;9.222;2023-04-16T14:05:35;13.93;;;8.93;;
75169;SDS011;63749;49.186;9.222;2023-04-16T14:08:00;13.77;;;8.50;;
75169;SDS011;63749;49.186;9.222;2023-04-16T14:10:25;14.37;;;8.60;;
75169;SDS011;63749;49.186;9.222;2023-04-16T14:12:51;15.20;;;9.70;;
75169;SDS011;63749;49.186;9.222;2023-04-16T14:15:16;14.43;;;9.40;;
75169;SDS011;63749;49.186;9.222;2023-04-16T14:17:42;15.65;;;9.63;;
75169;SDS011;63749;49.186;9.222;2023-04-16T14:20:11;15.63;;;9.68;;
75169;SDS011;63749;49.186;9.222;2023-04-16T14:22:37;18.60;;;9.77;;
75169;SDS011;63749;49.186;9.222;2023-04-16T14:25:04;18.30;;;10.77;;
75169;SDS011;63749;49.186;9.222;2023-04-16T14:27:31;18.85;;;10.38;;
75169;SDS011;63749;49.186;9.222;2023-04-16T14:29:57;16.70;;;9.55;;
75169;SDS011;63749;49.186;9.222;2023-04-16T14:32:23;16.60;;;9.37;;
75169;SDS011;63749;49.186;9.222;2023-04-16T14:34:50;18.73;;;9.93;;